Terminal Aerodrome Forecast
Issued by NWS

Home | Current Version | Previous Version | Text Only | Print | Product List | Glossary On
Versions: 1 2 3 4 5 6 7 8 9 10 11 12 13 14 15 16 17 18 19 20 21 22 23 24 25 26 27
116
FTUS46 KSEW 220300 AAA
TAFSEA
TAF AMD
KSEA 220300Z 2203/2306 29004KT P6SM FEW050 BKN100 BKN200
     FM220900 15004KT P6SM BKN050 OVC080
     FM221400 18005KT P6SM SCT030 BKN040 OVC060
     FM222100 23006KT P6SM SCT040 BKN060
     FM230100 35006KT P6SM SCT035 BKN045=

USA.gov is the U.S. government's official web portal to all federal, state and local government web resources and services.